Croft, United Kingdom
Current Conditions -  °F | °C
As of 10:50 PM on Friday 28 Nov 2014 (Local Time) from EGBE Reporting Station
Light Rain Light Rain  
Wind Chill: 50°   Ceiling: Unl
Heat Index: 50°   Visibility: 3mi
Dew Point: 50°   Wind: 10mph
Humidity: 100%   Direction: 40°NE
Pressure: 29.74"   Gusts: NA
Location:  52.56°N, 1.25°W
Report Text: EGBE 282250Z 04009KT 5000 -RA BR NSC 10/10 Q1007
Loading
Personal Weather Stations






























Interactive Weather Map New forecast layout! Learn more

10-Day Weather Forecast

Advertisements
Track Severe Weather on mobile